»·PEaware :: N321TB KSMO-KONT

N321TB :: KSMO-KONT

FLIGHT INFORMATION

Flight Status: Arrived
Operator: Privately registered:
United States
More flights under this callsign
Pilot: Martin K. (31672)
Aircraft: CESSNA 172 SKYHAWK
(C172)
More flights by this aircraft type
Origin: KSMO Santa Monica Mun
United States
Destination: KONT Ontario Intl
United States
More flights between these airports :: More routes between these airports
Route: +
File this flight plan on PilotEdge
Remarks:
Altitude:
(Current/Filed)
3,500ft
Speed:
(Current/Filed)
0kts
Departed: 30-Oct-20 11:42 AM
Arrived: 30-Oct-20 12:13 PM
Distance/Time
Traveled:
42nm/0:30
Distance/Time
To Go:
Arrived

Flight Plot

Page will automatically refresh every two minutes.


Map Options




Map Legend


Flown Route
Filed Route
Departure Airport
Arrival Airport
Navaid (VOR, NDB)
Fix

Horizontal Profiles

Position Reports

Time Latitude Longitude Heading Altitude Ground
Speed
30-Oct-20 11:35 34.020077 -118.447705 133 178ft 0kts
30-Oct-20 11:36 34.020014 -118.447645 159 178ft 3kts
30-Oct-20 11:37 34.019556 -118.447713 142 178ft 0kts
30-Oct-20 11:38 34.019556 -118.447713 142 178ft 0kts
30-Oct-20 11:39 34.019556 -118.447713 142 178ft 0kts
30-Oct-20 11:40 34.019556 -118.447713 142 178ft 0kts
30-Oct-20 11:41 34.013534 -118.453975 222 364ft 79kts
30-Oct-20 11:42 34.006885 -118.477051 313 1112ft 96kts
30-Oct-20 11:43 34.029292 -118.469801 38 1870ft 98kts
30-Oct-20 11:44 34.050968 -118.443296 46 1972ft 118kts
30-Oct-20 11:45 34.066770 -118.408800 72 1970ft 120kts
30-Oct-20 11:46 34.072113 -118.368807 83 1967ft 121kts
30-Oct-20 11:47 34.077839 -118.329053 82 2007ft 118kts
30-Oct-20 11:48 34.078344 -118.288688 86 2014ft 120kts
30-Oct-20 11:49 34.077693 -118.248049 92 2016ft 121kts
30-Oct-20 11:50 34.076230 -118.207341 92 2020ft 121kts
30-Oct-20 11:51 34.087653 -118.172548 58 2335ft 108kts
30-Oct-20 11:53 34.104305 -118.139811 58 2753ft 112kts
30-Oct-20 11:54 34.104934 -118.103452 95 3345ft 109kts
30-Oct-20 11:55 34.101181 -118.064720 96 3503ft 121kts
30-Oct-20 11:56 34.097253 -118.023957 95 3503ft 122kts
30-Oct-20 11:57 34.093392 -117.983299 95 3503ft 122kts
30-Oct-20 11:58 34.089453 -117.942478 96 3502ft 121kts
30-Oct-20 11:59 34.085643 -117.904769 95 3503ft 110kts
30-Oct-20 12:00 34.077723 -117.869609 115 3503ft 110kts
30-Oct-20 12:01 34.064136 -117.836472 115 3501ft 110kts
30-Oct-20 12:02 34.050582 -117.803456 115 3499ft 110kts
30-Oct-20 12:03 34.036191 -117.768426 115 3046ft 112kts
30-Oct-20 12:04 34.022473 -117.735834 117 2661ft 101kts
30-Oct-20 12:05 34.024480 -117.703589 74 2624ft 98kts
30-Oct-20 12:06 34.031710 -117.671458 70 2555ft 99kts
30-Oct-20 12:06 34.036798 -117.644584 92 2291ft 98kts
30-Oct-20 12:08 34.035424 -117.606697 88 2122ft 94kts
30-Oct-20 12:08 34.035587 -117.581117 89 2176ft 85kts
30-Oct-20 12:09 34.038392 -117.553893 21 2013ft 84kts
30-Oct-20 12:10 34.055054 -117.563918 270 1433ft 80kts
30-Oct-20 12:11 34.054981 -117.587643 269 924ft 45kts
30-Oct-20 12:12 34.053845 -117.597294 268 920ft 23kts
30-Oct-20 12:13 34.053834 -117.605742 270 924ft 25kts
30-Oct-20 12:14 34.053554 -117.611663 182 927ft 10kts
30-Oct-20 12:15 34.053246 -117.611780 91 925ft 0kts
30-Oct-20 12:16 34.053246 -117.611780 91 925ft 0kts
30-Oct-20 12:17 34.053246 -117.611780 91 925ft 0kts
30-Oct-20 12:18 34.053246 -117.611780 91 925ft 0kts
30-Oct-20 12:19 34.053246 -117.611780 91 925ft 0kts
30-Oct-20 12:20 34.053246 -117.611780 91 925ft 0kts
30-Oct-20 12:21 34.053246 -117.611780 91 925ft 0kts
30-Oct-20 12:22 34.053246 -117.611780 91 925ft 0kts
30-Oct-20 12:23 34.053246 -117.611780 91 925ft 0kts
30-Oct-20 12:24 34.053246 -117.611780 91 925ft 0kts
30-Oct-20 12:25 34.053246 -117.611780 91 925ft 0kts
30-Oct-20 12:26 34.053246 -117.611780 91 925ft 0kts

Navigation Log

Ident Type
Flight plan parsing failed, navigation log unavailable